Time;durP1;ratioP1;P1;durP2;ratioP2;P2;SDS_P1;SDS_P2;PMS_P1;PMS_P2;Temp;Humidity;BMP_temperature;BMP_pressure;BME280_temperature;BME280_humidity;BME280_pressure;Samples;Min_cycle;Max_cycle;Signal;HPM_P1;HPM_P2
2023/01/03 00:01:46;;;;;;;7.33;3.00;;;;;;;;;;5093343;28;20455;-72
2023/01/03 00:04:13;;;;;;;9.30;4.60;;;;;;;;;;5093521;28;20823;-71
2023/01/03 00:06:41;;;;;;;4.90;2.80;;;;;;;;;;5093292;28;20461;-72
2023/01/03 00:09:11;;;;;;;5.93;2.57;;;;;;;;;;5093502;28;20494;-72
2023/01/03 00:14:26;;;;;;;13.93;2.53;;;;;;;;;;5093257;28;20496;-71
2023/01/03 00:16:54;;;;;;;7.40;2.93;;;;;;;;;;5093175;28;20447;-72
2023/01/03 00:19:21;;;;;;;5.33;2.40;;;;;;;;;;5093113;28;20477;-72
2023/01/03 00:21:48;;;;;;;4.00;2.40;;;;;;;;;;5095870;28;20966;-72
2023/01/03 00:24:16;;;;;;;4.03;2.23;;;;;;;;;;5097590;28;20454;-72
2023/01/03 00:26:43;;;;;;;2.90;2.60;;;;;;;;;;5097941;28;20449;-72
2023/01/03 00:29:10;;;;;;;2.00;1.60;;;;;;;;;;5097449;28;20997;-72
2023/01/03 00:31:39;;;;;;;5.10;3.03;;;;;;;;;;5097226;28;20481;-72
2023/01/03 00:34:06;;;;;;;4.30;2.40;;;;;;;;;;5097106;28;20446;-72
2023/01/03 00:36:34;;;;;;;4.00;2.33;;;;;;;;;;5097092;28;20439;-72
2023/01/03 00:39:01;;;;;;;4.53;2.40;;;;;;;;;;5097133;28;20481;-72
2023/01/03 00:41:29;;;;;;;4.03;2.07;;;;;;;;;;5097260;28;20451;-72
2023/01/03 00:43:56;;;;;;;4.90;2.43;;;;;;;;;;5096926;28;20512;-71
2023/01/03 00:46:23;;;;;;;4.03;2.17;;;;;;;;;;5097076;28;20485;-72
2023/01/03 00:48:52;;;;;;;4.83;2.43;;;;;;;;;;5097226;28;21144;-72
2023/01/03 00:51:20;;;;;;;6.43;2.77;;;;;;;;;;5096818;28;20457;-72
2023/01/03 00:53:48;;;;;;;6.70;2.40;;;;;;;;;;5097199;28;20455;-72
2023/01/03 00:56:18;;;;;;;5.17;2.40;;;;;;;;;;5096739;28;20450;-72
2023/01/03 00:58:45;;;;;;;5.63;2.67;;;;;;;;;;5096602;28;20477;-72
2023/01/03 01:01:13;;;;;;;4.87;2.00;;;;;;;;;;5096931;28;20824;-72
2023/01/03 01:03:41;;;;;;;5.57;2.57;;;;;;;;;;5096889;28;20450;-72
2023/01/03 01:06:13;;;;;;;4.33;2.50;;;;;;;;;;5096759;28;20853;-72
2023/01/03 01:08:41;;;;;;;3.20;2.50;;;;;;;;;;5096681;28;20502;-72
2023/01/03 01:11:08;;;;;;;4.90;2.13;;;;;;;;;;5096727;28;20950;-72
2023/01/03 01:13:35;;;;;;;5.10;2.60;;;;;;;;;;5096442;28;20442;-72
2023/01/03 01:16:03;;;;;;;2.57;2.17;;;;;;;;;;5096665;28;20438;-72
2023/01/03 01:18:30;;;;;;;4.10;2.40;;;;;;;;;;5096575;28;20998;-72
2023/01/03 01:20:57;;;;;;;3.40;2.70;;;;;;;;;;5096796;28;20450;-72
2023/01/03 01:23:26;;;;;;;8.23;2.50;;;;;;;;;;5096247;28;20461;-72
2023/01/03 01:25:53;;;;;;;4.03;2.70;;;;;;;;;;5096405;28;20876;-72
2023/01/03 01:28:20;;;;;;;5.90;3.40;;;;;;;;;;5096397;28;20931;-72
2023/01/03 01:30:47;;;;;;;3.70;2.27;;;;;;;;;;5096431;28;20458;-72
2023/01/03 01:33:14;;;;;;;5.33;2.53;;;;;;;;;;5096014;28;20439;-72
2023/01/03 01:35:41;;;;;;;3.60;2.30;;;;;;;;;;5096255;28;20455;-72
2023/01/03 01:38:08;;;;;;;3.60;2.63;;;;;;;;;;5096082;28;20501;-72
2023/01/03 01:40:36;;;;;;;15.00;2.47;;;;;;;;;;5095965;28;20456;-72
2023/01/03 01:45:57;;;;;;;4.03;2.43;;;;;;;;;;5095852;28;20466;-72
2023/01/03 01:48:24;;;;;;;4.60;2.70;;;;;;;;;;5095726;28;20467;-72
2023/01/03 01:50:54;;;;;;;3.90;2.17;;;;;;;;;;5095697;28;20455;-72
2023/01/03 01:53:23;;;;;;;6.73;2.70;;;;;;;;;;5096062;28;20435;-72
2023/01/03 01:55:53;;;;;;;5.13;2.37;;;;;;;;;;5095879;28;20451;-72
2023/01/03 01:58:21;;;;;;;4.73;2.43;;;;;;;;;;5096116;28;20578;-72
2023/01/03 02:00:48;;;;;;;4.73;2.90;;;;;;;;;;5095791;28;20958;-72
2023/01/03 02:03:15;;;;;;;23.40;14.20;;;;;;;;;;5095775;28;20451;-72
2023/01/03 02:05:44;;;;;;;10.33;3.10;;;;;;;;;;5095573;28;20489;-72
2023/01/03 02:08:11;;;;;;;5.13;2.90;;;;;;;;;;5095623;28;20985;-72
2023/01/03 02:10:43;;;;;;;9.27;3.07;;;;;;;;;;5095680;28;20800;-72
2023/01/03 02:13:16;;;;;;;4.60;3.17;;;;;;;;;;5095319;28;20610;-72
2023/01/03 02:16:01;;;;;;;7.57;4.17;;;;;;;;;;5095494;28;20438;-72
2023/01/03 02:18:34;;;;;;;7.03;3.00;;;;;;;;;;5095485;28;20478;-72
2023/01/03 02:21:19;;;;;;;5.70;3.40;;;;;;;;;;5095500;28;20825;-72
2023/01/03 02:24:13;;;;;;;6.47;3.53;;;;;;;;;;5064341;28;20450;-72
2023/01/03 02:26:51;;;;;;;7.70;3.00;;;;;;;;;;5059042;28;20498;-72
2023/01/03 02:29:26;;;;;;;6.20;2.93;;;;;;;;;;5095524;28;20958;-72
2023/01/03 02:31:58;;;;;;;5.57;2.53;;;;;;;;;;5095202;28;20435;-72
2023/01/03 02:34:30;;;;;;;6.30;2.97;;;;;;;;;;5095238;28;20908;-72
2023/01/03 02:37:02;;;;;;;5.80;2.90;;;;;;;;;;5095159;28;20427;-72
2023/01/03 02:39:33;;;;;;;5.17;2.27;;;;;;;;;;5094845;28;20482;-72
2023/01/03 02:44:52;;;;;;;6.20;2.70;;;;;;;;;;5094409;28;20453;-72
2023/01/03 02:47:22;;;;;;;7.07;2.43;;;;;;;;;;5094887;28;20451;-72
2023/01/03 02:49:51;;;;;;;3.30;2.30;;;;;;;;;;5094888;28;20483;-72
2023/01/03 02:52:20;;;;;;;4.53;2.63;;;;;;;;;;5094809;28;20454;-72
2023/01/03 02:54:49;;;;;;;3.50;2.50;;;;;;;;;;5094758;28;20442;-72
2023/01/03 02:57:18;;;;;;;4.00;2.50;;;;;;;;;;5094450;28;20446;-72
2023/01/03 02:59:47;;;;;;;3.83;2.70;;;;;;;;;;5094752;28;20458;-72
2023/01/03 03:02:15;;;;;;;2.80;2.13;;;;;;;;;;5094626;28;20459;-72
2023/01/03 03:04:45;;;;;;;7.40;3.37;;;;;;;;;;5094603;28;20454;-72
2023/01/03 03:07:14;;;;;;;7.17;3.30;;;;;;;;;;5094490;28;20973;-72
2023/01/03 03:15:11;;;;;;;5.47;3.23;;;;;;;;;;5093957;28;20438;-72
2023/01/03 03:17:39;;;;;;;6.27;2.60;;;;;;;;;;5094216;28;20987;-72
2023/01/03 03:25:45;;;;;;;4.57;3.53;;;;;;;;;;5094236;28;20466;-72
2023/01/03 03:28:36;;;;;;;3.63;3.17;;;;;;;;;;5094027;28;20955;-72
2023/01/03 03:31:04;;;;;;;4.40;3.13;;;;;;;;;;5094160;28;20458;-72
2023/01/03 03:33:34;;;;;;;3.60;2.70;;;;;;;;;;5093855;28;20450;-72
2023/01/03 03:36:05;;;;;;;3.23;2.43;;;;;;;;;;5094075;28;20466;-72
2023/01/03 03:38:34;;;;;;;2.97;2.10;;;;;;;;;;5093673;28;20483;-72
2023/01/03 03:46:41;;;;;;;3.03;2.03;;;;;;;;;;5093624;28;20462;-72
2023/01/03 03:51:57;;;;;;;8.03;2.60;;;;;;;;;;5093769;28;20492;-72
2023/01/03 03:54:25;;;;;;;6.30;3.70;;;;;;;;;;5093479;28;20516;-72
2023/01/03 03:56:55;;;;;;;4.40;2.50;;;;;;;;;;5092894;28;20447;-72
2023/01/03 03:59:24;;;;;;;4.63;2.67;;;;;;;;;;5093578;28;20490;-72
2023/01/03 04:01:51;;;;;;;3.57;2.07;;;;;;;;;;5093661;28;20477;-72
2023/01/03 04:04:21;;;;;;;3.93;1.90;;;;;;;;;;5093722;28;20473;-72
2023/01/03 04:06:49;;;;;;;3.80;2.07;;;;;;;;;;5093502;28;21017;-72
2023/01/03 04:09:18;;;;;;;3.70;2.23;;;;;;;;;;5093534;28;20470;-72
2023/01/03 04:11:45;;;;;;;4.00;2.20;;;;;;;;;;5093531;28;20447;-72
2023/01/03 04:14:12;;;;;;;3.40;2.17;;;;;;;;;;5093585;28;20467;-72
2023/01/03 04:16:40;;;;;;;6.20;2.60;;;;;;;;;;5093438;28;20447;-72
2023/01/03 04:19:07;;;;;;;3.90;2.20;;;;;;;;;;5093422;28;20892;-72
2023/01/03 04:21:35;;;;;;;5.40;1.90;;;;;;;;;;5093439;28;20447;-72
2023/01/03 04:24:02;;;;;;;2.33;1.73;;;;;;;;;;5093418;28;20488;-72
2023/01/03 04:26:31;;;;;;;3.37;2.53;;;;;;;;;;5093293;28;20493;-72
2023/01/03 04:28:58;;;;;;;2.30;1.97;;;;;;;;;;5092973;28;20474;-72
2023/01/03 04:31:25;;;;;;;2.67;2.00;;;;;;;;;;5093453;28;20814;-72
2023/01/03 04:33:53;;;;;;;4.17;2.20;;;;;;;;;;5093806;28;20435;-72
2023/01/03 04:36:20;;;;;;;2.60;2.07;;;;;;;;;;5093320;28;20443;-72
2023/01/03 04:38:47;;;;;;;3.20;1.90;;;;;;;;;;5092779;28;20487;-72
2023/01/03 04:41:14;;;;;;;3.53;2.80;;;;;;;;;;5092863;28;20446;-72
2023/01/03 04:46:27;;;;;;;2.90;2.33;;;;;;;;;;5093275;28;20533;-72
2023/01/03 04:48:54;;;;;;;3.40;2.57;;;;;;;;;;5093059;28;20978;-72
2023/01/03 04:51:21;;;;;;;5.10;2.60;;;;;;;;;;5093162;28;20458;-72
2023/01/03 04:53:48;;;;;;;4.17;2.60;;;;;;;;;;5093140;28;20458;-72
2023/01/03 04:56:15;;;;;;;4.10;2.43;;;;;;;;;;5093141;28;20947;-72
2023/01/03 04:58:44;;;;;;;4.37;3.23;;;;;;;;;;5093029;28;20838;-72
2023/01/03 05:01:11;;;;;;;4.20;3.00;;;;;;;;;;5093104;28;20454;-72
2023/01/03 05:03:38;;;;;;;5.10;2.63;;;;;;;;;;5093069;28;20453;-72
2023/01/03 05:06:06;;;;;;;6.60;2.57;;;;;;;;;;5093192;28;20514;-72
2023/01/03 05:08:33;;;;;;;7.00;3.27;;;;;;;;;;5096249;28;20470;-72
2023/01/03 05:11:00;;;;;;;7.10;3.33;;;;;;;;;;5096768;28;20989;-72
2023/01/03 05:13:27;;;;;;;6.00;2.70;;;;;;;;;;5096720;28;20962;-72
2023/01/03 05:15:56;;;;;;;3.90;2.70;;;;;;;;;;5096716;28;20458;-72
2023/01/03 05:18:23;;;;;;;5.17;2.97;;;;;;;;;;5096655;28;20477;-72
2023/01/03 05:26:21;;;;;;;8.17;3.30;;;;;;;;;;5096480;28;20464;-72
2023/01/03 05:28:52;;;;;;;7.43;4.60;;;;;;;;;;5096385;28;20487;-72
2023/01/03 05:31:21;;;;;;;4.23;3.80;;;;;;;;;;5096553;28;20443;-72
2023/01/03 05:33:48;;;;;;;3.37;2.93;;;;;;;;;;5096393;28;20508;-72
2023/01/03 05:36:15;;;;;;;4.07;2.53;;;;;;;;;;5096390;28;20827;-72
2023/01/03 05:38:42;;;;;;;3.97;2.67;;;;;;;;;;5095978;28;20486;-72
2023/01/03 05:41:10;;;;;;;3.90;2.90;;;;;;;;;;5096192;28;20447;-72
2023/01/03 05:43:37;;;;;;;6.73;2.80;;;;;;;;;;5096215;28;20454;-72
2023/01/03 05:46:04;;;;;;;5.10;3.47;;;;;;;;;;5095882;28;20513;-72
2023/01/03 05:48:32;;;;;;;3.27;2.70;;;;;;;;;;5096025;28;20478;-72
2023/01/03 05:50:59;;;;;;;3.23;2.73;;;;;;;;;;5095997;28;20454;-72
2023/01/03 05:53:26;;;;;;;3.50;2.93;;;;;;;;;;5095994;28;20446;-72
2023/01/03 05:55:53;;;;;;;5.10;3.60;;;;;;;;;;5095345;28;20455;-72
2023/01/03 05:58:20;;;;;;;7.23;3.57;;;;;;;;;;5095467;28;20475;-72
2023/01/03 06:00:47;;;;;;;6.23;5.13;;;;;;;;;;5095755;28;20940;-72
2023/01/03 06:03:15;;;;;;;6.57;4.20;;;;;;;;;;5095778;28;20454;-72
2023/01/03 06:05:43;;;;;;;4.50;4.03;;;;;;;;;;5095709;28;20461;-72
2023/01/03 06:08:10;;;;;;;4.30;3.80;;;;;;;;;;5095253;28;20487;-72
2023/01/03 06:10:39;;;;;;;5.40;3.80;;;;;;;;;;5095580;28;20442;-72
2023/01/03 06:13:07;;;;;;;4.00;3.50;;;;;;;;;;5095520;28;20474;-72
2023/01/03 06:15:34;;;;;;;6.13;4.37;;;;;;;;;;5095516;28;20450;-72
2023/01/03 06:18:01;;;;;;;6.10;5.27;;;;;;;;;;5095056;28;20474;-72
2023/01/03 06:20:28;;;;;;;4.80;3.97;;;;;;;;;;5095129;28;20538;-72
2023/01/03 06:22:57;;;;;;;3.43;3.13;;;;;;;;;;5094997;28;20462;-72
2023/01/03 06:25:24;;;;;;;4.00;3.10;;;;;;;;;;5095227;28;20447;-72
2023/01/03 06:27:51;;;;;;;4.10;3.37;;;;;;;;;;5095110;28;20502;-72
2023/01/03 06:30:19;;;;;;;4.20;3.67;;;;;;;;;;5095297;28;20804;-72
2023/01/03 06:32:46;;;;;;;3.97;3.60;;;;;;;;;;5094918;28;20446;-72
2023/01/03 06:35:13;;;;;;;4.30;3.10;;;;;;;;;;5095159;28;20957;-72
2023/01/03 06:37:41;;;;;;;4.00;3.60;;;;;;;;;;5094884;28;20471;-72
2023/01/03 06:40:10;;;;;;;4.33;3.43;;;;;;;;;;5095091;28;20440;-72
2023/01/03 06:42:41;;;;;;;5.47;3.50;;;;;;;;;;5094993;28;20455;-72
2023/01/03 06:53:24;;;;;;;9.90;8.23;;;;;;;;;;5094880;28;20825;-72
2023/01/03 06:55:53;;;;;;;7.10;5.90;;;;;;;;;;5094739;28;20923;-72
2023/01/03 06:58:20;;;;;;;7.50;6.03;;;;;;;;;;5094658;28;20849;-72
2023/01/03 07:00:47;;;;;;;12.47;6.60;;;;;;;;;;5094707;28;20843;-72
2023/01/03 07:03:14;;;;;;;20.43;12.23;;;;;;;;;;5094578;28;20807;-72
2023/01/03 07:05:41;;;;;;;12.80;8.97;;;;;;;;;;5094577;28;20451;-72
2023/01/03 07:08:08;;;;;;;8.50;7.37;;;;;;;;;;5094398;28;20513;-72
2023/01/03 07:10:35;;;;;;;8.53;6.67;;;;;;;;;;5094543;28;20458;-72
2023/01/03 07:15:49;;;;;;;15.20;7.93;;;;;;;;;;5094664;28;20407;-72
2023/01/03 07:18:16;;;;;;;9.90;7.80;;;;;;;;;;5094369;28;20463;-71
2023/01/03 07:20:43;;;;;;;9.63;6.90;;;;;;;;;;5093872;28;20481;-72
2023/01/03 07:23:11;;;;;;;6.20;5.60;;;;;;;;;;5093949;28;20458;-72
2023/01/03 07:25:40;;;;;;;10.07;7.80;;;;;;;;;;5094048;28;20455;-72
2023/01/03 07:28:09;;;;;;;12.13;6.40;;;;;;;;;;5093991;28;20486;-72
2023/01/03 07:30:41;;;;;;;6.97;5.73;;;;;;;;;;5093767;28;20443;-72
2023/01/03 07:33:09;;;;;;;9.20;8.30;;;;;;;;;;5094112;28;20457;-72
2023/01/03 07:35:36;;;;;;;7.27;6.10;;;;;;;;;;5094355;28;20935;-72
2023/01/03 07:38:03;;;;;;;9.00;6.20;;;;;;;;;;5093632;28;20494;-71
2023/01/03 07:40:31;;;;;;;7.40;5.57;;;;;;;;;;5093993;28;20778;-72
2023/01/03 07:45:44;;;;;;;10.70;8.07;;;;;;;;;;5093874;28;20403;-72
2023/01/03 07:48:12;;;;;;;13.10;7.50;;;;;;;;;;5093705;28;20514;-72
2023/01/03 07:50:39;;;;;;;12.90;7.80;;;;;;;;;;5093840;28;20435;-72
2023/01/03 07:53:07;;;;;;;14.53;9.63;;;;;;;;;;5093809;28;20458;-72
2023/01/03 07:55:34;;;;;;;12.60;8.17;;;;;;;;;;5093786;28;20818;-72
2023/01/03 07:58:01;;;;;;;9.37;7.47;;;;;;;;;;5093651;28;20467;-72
2023/01/03 08:00:28;;;;;;;7.43;6.20;;;;;;;;;;5093445;28;20449;-72
2023/01/03 08:02:57;;;;;;;8.07;6.57;;;;;;;;;;5093654;28;20935;-72
2023/01/03 08:05:25;;;;;;;7.67;5.57;;;;;;;;;;5093802;28;20453;-72
2023/01/03 08:07:53;;;;;;;6.30;5.63;;;;;;;;;;5093363;28;20954;-72
2023/01/03 08:13:18;;;;;;;11.77;8.67;;;;;;;;;;5093078;28;20406;-72
2023/01/03 08:15:45;;;;;;;9.33;8.40;;;;;;;;;;5093306;28;20450;-72
2023/01/03 08:18:14;;;;;;;10.33;8.93;;;;;;;;;;5093386;28;20475;-72
2023/01/03 08:20:44;;;;;;;9.67;8.53;;;;;;;;;;5093358;28;20521;-73
2023/01/03 08:23:11;;;;;;;10.00;7.20;;;;;;;;;;5093065;28;20453;-72
2023/01/03 08:25:38;;;;;;;9.13;6.23;;;;;;;;;;5093407;28;20474;-72
2023/01/03 08:28:06;;;;;;;8.50;7.60;;;;;;;;;;5093188;28;20495;-72
2023/01/03 08:30:36;;;;;;;9.00;7.20;;;;;;;;;;5093408;28;20435;-72
2023/01/03 08:33:04;;;;;;;10.17;7.37;;;;;;;;;;5093077;28;20435;-72
2023/01/03 08:35:35;;;;;;;9.07;6.80;;;;;;;;;;5093130;28;20455;-72
2023/01/03 08:38:04;;;;;;;7.43;6.60;;;;;;;;;;5093305;28;20833;-72
2023/01/03 08:40:32;;;;;;;9.63;7.20;;;;;;;;;;5093311;28;20954;-72
2023/01/03 08:42:59;;;;;;;17.60;10.80;;;;;;;;;;5095875;28;20458;-72
2023/01/03 08:45:27;;;;;;;17.90;9.47;;;;;;;;;;5097023;28;20919;-72
2023/01/03 08:47:57;;;;;;;11.23;8.13;;;;;;;;;;5097247;28;20522;-72
2023/01/03 08:50:25;;;;;;;8.13;5.97;;;;;;;;;;5097388;28;20955;-72
2023/01/03 08:52:53;;;;;;;8.00;6.40;;;;;;;;;;5097142;28;20454;-72
2023/01/03 08:55:20;;;;;;;6.80;5.97;;;;;;;;;;5097062;28;20558;-72
2023/01/03 08:57:48;;;;;;;6.97;5.83;;;;;;;;;;5096625;28;20505;-72
2023/01/03 09:00:15;;;;;;;6.83;5.50;;;;;;;;;;5097242;28;20473;-72
2023/01/03 09:02:42;;;;;;;9.20;6.20;;;;;;;;;;5096959;28;20465;-72
2023/01/03 09:05:10;;;;;;;7.90;6.10;;;;;;;;;;5096942;28;20462;-72
2023/01/03 09:07:37;;;;;;;8.63;6.60;;;;;;;;;;5096800;28;21018;-72
2023/01/03 09:10:06;;;;;;;7.63;5.83;;;;;;;;;;5096817;28;20957;-72
2023/01/03 09:12:33;;;;;;;12.23;5.27;;;;;;;;;;5096782;28;20442;-72
2023/01/03 09:15:00;;;;;;;8.60;6.43;;;;;;;;;;5096849;28;20461;-72
2023/01/03 09:17:27;;;;;;;9.53;7.43;;;;;;;;;;5096622;28;20443;-72
2023/01/03 09:19:54;;;;;;;9.90;5.70;;;;;;;;;;5096751;28;20439;-72
2023/01/03 09:22:21;;;;;;;7.37;6.60;;;;;;;;;;5096250;28;20454;-72
2023/01/03 09:24:48;;;;;;;6.70;5.27;;;;;;;;;;5096510;28;20893;-72
2023/01/03 09:27:16;;;;;;;6.67;5.50;;;;;;;;;;5096206;28;20513;-72
2023/01/03 09:29:44;;;;;;;8.30;5.50;;;;;;;;;;5096311;28;20455;-72
2023/01/03 09:32:11;;;;;;;6.33;5.70;;;;;;;;;;5096438;28;20903;-72
2023/01/03 09:34:38;;;;;;;6.90;4.57;;;;;;;;;;5096608;28;20450;-72
2023/01/03 09:37:05;;;;;;;5.97;4.40;;;;;;;;;;5096484;28;20455;-72
2023/01/03 09:39:32;;;;;;;6.83;3.83;;;;;;;;;;5095908;28;20495;-72
2023/01/03 09:44:47;;;;;;;6.43;3.97;;;;;;;;;;5096062;28;20410;-72
2023/01/03 09:47:17;;;;;;;5.47;3.80;;;;;;;;;;5095739;28;20486;-71
2023/01/03 09:49:44;;;;;;;5.40;3.63;;;;;;;;;;5095961;28;20458;-72
2023/01/03 10:03:44;;;;;;;4.50;3.97;;;;;;;;;;5095583;28;20411;-72
2023/01/03 10:06:14;;;;;;;3.70;3.23;;;;;;;;;;5095975;28;20932;-72
2023/01/03 10:08:50;;;;;;;4.40;3.37;;;;;;;;;;5095356;28;20981;-72
2023/01/03 10:11:21;;;;;;;5.47;3.80;;;;;;;;;;5096039;28;20430;-72
2023/01/03 10:13:54;;;;;;;5.30;4.10;;;;;;;;;;5095334;28;20439;-72
2023/01/03 10:16:29;;;;;;;4.80;3.43;;;;;;;;;;5095621;28;20536;-72
2023/01/03 10:19:04;;;;;;;5.00;4.50;;;;;;;;;;5095474;28;20458;-72
2023/01/03 10:21:36;;;;;;;4.03;3.60;;;;;;;;;;5095195;28;20430;-72
2023/01/03 10:24:10;;;;;;;5.70;4.37;;;;;;;;;;5095131;28;20434;-72
2023/01/03 10:26:37;;;;;;;3.80;3.20;;;;;;;;;;5094704;28;20427;-71
2023/01/03 10:29:04;;;;;;;5.20;4.70;;;;;;;;;;5095136;28;20855;-72
2023/01/03 10:31:40;;;;;;;5.10;4.43;;;;;;;;;;5095204;28;20442;-72
2023/01/03 10:34:07;;;;;;;7.70;4.20;;;;;;;;;;5095206;28;20439;-72
2023/01/03 10:36:34;;;;;;;5.10;3.70;;;;;;;;;;5094796;28;20482;-72
2023/01/03 10:39:06;;;;;;;6.60;5.90;;;;;;;;;;5094773;28;20486;-72
2023/01/03 10:41:37;;;;;;;6.30;4.37;;;;;;;;;;5095232;28;20451;-72
2023/01/03 10:44:04;;;;;;;5.40;3.80;;;;;;;;;;5095098;28;20427;-72
2023/01/03 10:46:32;;;;;;;4.60;4.10;;;;;;;;;;5094680;28;20459;-72
2023/01/03 10:49:12;;;;;;;5.80;5.10;;;;;;;;;;5094822;28;20490;-72
2023/01/03 10:51:41;;;;;;;6.53;5.93;;;;;;;;;;5094919;28;20431;-72
2023/01/03 10:54:11;;;;;;;4.80;4.20;;;;;;;;;;5094731;28;20478;-72
2023/01/03 10:56:38;;;;;;;6.63;4.60;;;;;;;;;;5095444;28;20532;-72
2023/01/03 10:59:12;;;;;;;6.17;5.10;;;;;;;;;;5094415;28;20467;-72
2023/01/03 11:01:39;;;;;;;4.70;4.20;;;;;;;;;;5094643;28;20447;-72
2023/01/03 11:04:09;;;;;;;6.07;4.80;;;;;;;;;;5094271;28;20453;-72
2023/01/03 11:06:36;;;;;;;5.30;4.63;;;;;;;;;;5093994;28;20454;-71
2023/01/03 11:09:04;;;;;;;7.70;5.47;;;;;;;;;;5094585;28;20983;-72
2023/01/03 11:11:33;;;;;;;5.83;4.87;;;;;;;;;;5094226;28;20959;-77
2023/01/03 11:14:11;;;;;;;6.47;5.00;;;;;;;;;;5093437;28;20461;-77
2023/01/03 11:16:38;;;;;;;7.10;4.87;;;;;;;;;;5093876;28;20461;-77
2023/01/03 11:19:06;;;;;;;10.23;5.50;;;;;;;;;;5093652;28;20474;-77
2023/01/03 11:21:40;;;;;;;11.03;8.50;;;;;;;;;;5093742;28;20537;-77
2023/01/03 11:24:14;;;;;;;7.90;5.47;;;;;;;;;;5093244;28;20446;-77
2023/01/03 11:26:42;;;;;;;12.57;7.63;;;;;;;;;;5093673;28;20446;-77
2023/01/03 11:29:17;;;;;;;5.67;4.80;;;;;;;;;;5092397;28;20490;-77
2023/01/03 11:31:50;;;;;;;7.70;4.57;;;;;;;;;;5093483;28;20454;-77
2023/01/03 11:34:25;;;;;;;8.00;4.57;;;;;;;;;;5092964;28;20508;-77
2023/01/03 11:36:56;;;;;;;6.20;4.57;;;;;;;;;;5093551;28;20858;-77
2023/01/03 11:39:37;;;;;;;5.63;4.70;;;;;;;;;;5093453;28;20475;-77
2023/01/03 11:42:12;;;;;;;6.93;4.27;;;;;;;;;;5093319;28;20612;-77
2023/01/03 11:44:49;;;;;;;5.57;4.47;;;;;;;;;;5092992;28;20529;-77
2023/01/03 11:47:20;;;;;;;4.60;4.17;;;;;;;;;;5093307;28;20450;-77
2023/01/03 11:49:53;;;;;;;5.60;5.00;;;;;;;;;;5093322;28;20495;-77
2023/01/03 11:52:27;;;;;;;5.47;3.90;;;;;;;;;;5093382;28;20450;-77
2023/01/03 11:55:15;;;;;;;7.17;5.23;;;;;;;;;;5087930;28;20456;-76
2023/01/03 11:57:45;;;;;;;5.87;5.27;;;;;;;;;;5092562;28;20471;-77
2023/01/03 12:00:17;;;;;;;7.50;5.97;;;;;;;;;;5092644;28;20808;-77
2023/01/03 12:03:01;;;;;;;8.27;5.27;;;;;;;;;;5092567;28;20457;-77
2023/01/03 12:05:41;;;;;;;5.67;5.07;;;;;;;;;;5092130;28;20863;-77
2023/01/03 12:08:18;;;;;;;5.80;4.23;;;;;;;;;;5092536;28;20583;-77
2023/01/03 12:10:47;;;;;;;5.00;4.50;;;;;;;;;;5092576;28;20950;-77
2023/01/03 12:13:22;;;;;;;11.40;8.43;;;;;;;;;;5092747;28;20454;-77
2023/01/03 12:15:50;;;;;;;5.60;5.10;;;;;;;;;;5091688;28;20471;-77
2023/01/03 12:18:19;;;;;;;6.70;5.27;;;;;;;;;;5092041;28;20471;-77
2023/01/03 12:20:49;;;;;;;8.00;6.23;;;;;;;;;;5092425;28;20951;-77
2023/01/03 12:23:31;;;;;;;8.20;5.93;;;;;;;;;;5092545;28;20462;-77
2023/01/03 12:26:01;;;;;;;6.50;4.77;;;;;;;;;;5092086;28;20451;-76
2023/01/03 12:28:32;;;;;;;8.67;6.17;;;;;;;;;;5092247;28;20497;-77
2023/01/03 12:31:01;;;;;;;7.23;6.40;;;;;;;;;;5090322;28;20446;-77
2023/01/03 12:33:31;;;;;;;8.53;5.67;;;;;;;;;;5092445;28;20812;-77
2023/01/03 12:36:02;;;;;;;6.30;5.50;;;;;;;;;;5091946;28;20451;-77
2023/01/03 12:38:32;;;;;;;8.23;6.20;;;;;;;;;;5092022;28;20485;-77
2023/01/03 12:41:02;;;;;;;7.50;6.23;;;;;;;;;;5092308;28;20451;-77
2023/01/03 12:43:33;;;;;;;10.70;7.40;;;;;;;;;;5092124;28;20450;-77
2023/01/03 12:46:03;;;;;;;6.67;5.97;;;;;;;;;;5092072;28;20829;-77
2023/01/03 12:48:36;;;;;;;6.87;5.83;;;;;;;;;;5092495;28;21002;-77
2023/01/03 12:51:03;;;;;;;10.27;6.17;;;;;;;;;;5092418;28;20462;-77
2023/01/03 12:53:35;;;;;;;6.37;5.77;;;;;;;;;;5091760;28;20459;-77
2023/01/03 12:56:26;;;;;;;6.67;5.60;;;;;;;;;;5092037;28;20943;-77
2023/01/03 12:59:00;;;;;;;9.70;6.70;;;;;;;;;;5034649;28;20541;-77
2023/01/03 13:01:29;;;;;;;6.73;6.03;;;;;;;;;;5082901;28;20455;-77
2023/01/03 13:03:57;;;;;;;6.70;5.70;;;;;;;;;;5086324;28;20459;-77
2023/01/03 13:06:26;;;;;;;7.10;6.40;;;;;;;;;;5090461;28;20454;-77
2023/01/03 13:08:56;;;;;;;6.30;5.70;;;;;;;;;;5089089;28;21260;-77
2023/01/03 13:11:26;;;;;;;9.67;6.30;;;;;;;;;;5070334;28;20898;-77
2023/01/03 13:13:54;;;;;;;8.10;6.00;;;;;;;;;;5080436;28;20830;-77
2023/01/03 13:16:37;;;;;;;7.47;5.90;;;;;;;;;;5091078;28;20455;-77
2023/01/03 13:19:28;;;;;;;7.27;6.57;;;;;;;;;;5090585;28;20470;-77
2023/01/03 13:22:03;;;;;;;8.53;7.07;;;;;;;;;;5090027;28;20469;-77
2023/01/03 13:24:44;;;;;;;12.50;6.93;;;;;;;;;;5089975;28;20942;-76
2023/01/03 13:27:26;;;;;;;10.90;7.20;;;;;;;;;;5090853;28;20451;-75
2023/01/03 13:29:58;;;;;;;8.43;7.43;;;;;;;;;;5089949;28;20481;-75
2023/01/03 13:32:26;;;;;;;8.00;6.93;;;;;;;;;;5094199;28;20869;-75
2023/01/03 13:35:14;;;;;;;8.50;7.60;;;;;;;;;;5093734;28;20454;-77
2023/01/03 13:37:44;;;;;;;14.13;7.37;;;;;;;;;;5067588;28;20466;-76
2023/01/03 13:40:23;;;;;;;9.43;7.07;;;;;;;;;;5093852;28;20450;-75
2023/01/03 13:43:01;;;;;;;11.30;8.10;;;;;;;;;;5093931;28;20825;-75
2023/01/03 13:45:55;;;;;;;7.73;6.17;;;;;;;;;;5093641;28;20489;-75
2023/01/03 13:48:24;;;;;;;6.80;6.07;;;;;;;;;;5093634;28;20478;-75
2023/01/03 13:51:05;;;;;;;9.77;7.27;;;;;;;;;;5094065;28;20454;-75
2023/01/03 13:53:37;;;;;;;8.90;6.37;;;;;;;;;;5092908;28;20454;-75
2023/01/03 13:56:19;;;;;;;7.93;7.07;;;;;;;;;;5093691;28;20462;-75
2023/01/03 13:58:49;;;;;;;7.70;6.30;;;;;;;;;;5093575;28;20486;-75
2023/01/03 14:01:20;;;;;;;8.90;7.53;;;;;;;;;;5093620;28;20450;-75
2023/01/03 14:03:59;;;;;;;8.20;6.70;;;;;;;;;;5093047;28;20443;-75
2023/01/03 14:06:50;;;;;;;7.73;6.70;;;;;;;;;;5093635;28;20962;-75
2023/01/03 14:09:25;;;;;;;11.53;6.53;;;;;;;;;;5093070;28;20870;-75
2023/01/03 14:12:04;;;;;;;8.47;7.67;;;;;;;;;;5093382;28;20446;-75
2023/01/03 14:14:34;;;;;;;15.47;10.57;;;;;;;;;;5093167;28;20458;-75
2023/01/03 14:17:02;;;;;;;14.90;11.20;;;;;;;;;;5093869;28;20451;-75
2023/01/03 14:19:31;;;;;;;12.73;9.33;;;;;;;;;;5094622;28;20478;-76
2023/01/03 14:22:00;;;;;;;17.13;9.10;;;;;;;;;;5094525;28;20465;-75
2023/01/03 14:24:28;;;;;;;14.23;10.17;;;;;;;;;;5094105;28;20451;-75
2023/01/03 14:26:55;;;;;;;14.77;10.30;;;;;;;;;;5094666;28;20823;-75
2023/01/03 14:29:23;;;;;;;11.23;9.10;;;;;;;;;;5092793;28;20518;-75
2023/01/03 14:31:54;;;;;;;12.57;8.93;;;;;;;;;;5094340;28;20451;-75
2023/01/03 14:34:32;;;;;;;14.23;10.67;;;;;;;;;;5093292;28;20462;-75
2023/01/03 14:37:04;;;;;;;18.00;12.60;;;;;;;;;;5094350;28;21232;-75
2023/01/03 14:39:34;;;;;;;18.13;12.40;;;;;;;;;;5093502;28;20478;-75
2023/01/03 14:42:02;;;;;;;16.67;13.23;;;;;;;;;;5094514;28;20447;-75
2023/01/03 14:44:29;;;;;;;16.27;11.93;;;;;;;;;;5094081;28;20443;-75
2023/01/03 14:46:59;;;;;;;20.13;14.67;;;;;;;;;;5094439;28;20498;-75
2023/01/03 14:49:29;;;;;;;19.43;13.50;;;;;;;;;;5094121;28;20490;-75
2023/01/03 14:52:00;;;;;;;14.80;11.67;;;;;;;;;;5094336;28;21028;-75
2023/01/03 14:54:28;;;;;;;12.00;9.60;;;;;;;;;;5093787;28;20461;-75
2023/01/03 14:56:55;;;;;;;16.30;11.07;;;;;;;;;;5094183;28;20967;-75
2023/01/03 14:59:23;;;;;;;14.83;10.60;;;;;;;;;;5094102;28;20474;-75
2023/01/03 15:01:51;;;;;;;13.80;10.87;;;;;;;;;;5093973;28;20459;-75
2023/01/03 15:04:19;;;;;;;15.60;10.27;;;;;;;;;;5093651;28;20447;-75
2023/01/03 15:06:57;;;;;;;13.97;10.60;;;;;;;;;;5094173;28;20459;-75
2023/01/03 15:09:25;;;;;;;16.20;10.87;;;;;;;;;;5093779;28;20908;-75
2023/01/03 15:11:55;;;;;;;18.17;12.00;;;;;;;;;;5093874;28;20453;-75
2023/01/03 15:14:24;;;;;;;14.80;11.40;;;;;;;;;;5093659;28;20939;-75
2023/01/03 15:16:52;;;;;;;9.47;7.33;;;;;;;;;;5093752;28;20455;-75
2023/01/03 15:19:21;;;;;;;13.50;9.17;;;;;;;;;;5093827;28;20558;-75
2023/01/03 15:21:49;;;;;;;15.70;10.20;;;;;;;;;;5093750;28;20439;-75
2023/01/03 15:24:17;;;;;;;20.57;13.63;;;;;;;;;;5093235;28;20454;-75
2023/01/03 15:26:45;;;;;;;17.40;12.03;;;;;;;;;;5093576;28;20450;-75
2023/01/03 15:29:14;;;;;;;15.50;11.17;;;;;;;;;;5091644;28;20547;-74
2023/01/03 15:31:52;;;;;;;15.00;12.87;;;;;;;;;;5093347;28;20454;-75
2023/01/03 15:34:21;;;;;;;17.60;13.20;;;;;;;;;;5093153;28;20947;-75
2023/01/03 15:36:51;;;;;;;15.23;11.97;;;;;;;;;;5093450;28;20857;-75
2023/01/03 15:39:19;;;;;;;17.97;13.67;;;;;;;;;;5093473;28;20527;-75
2023/01/03 15:44:32;;;;;;;15.93;12.43;;;;;;;;;;5093114;28;20565;-75
2023/01/03 15:47:02;;;;;;;16.90;12.27;;;;;;;;;;5093221;28;20458;-75
2023/01/03 15:49:31;;;;;;;16.50;13.23;;;;;;;;;;5093393;28;20549;-75
2023/01/03 15:51:58;;;;;;;18.77;13.60;;;;;;;;;;5093158;28;20957;-75
2023/01/03 15:54:26;;;;;;;20.37;14.10;;;;;;;;;;5093044;28;20939;-75
2023/01/03 15:56:55;;;;;;;17.00;14.87;;;;;;;;;;5093124;28;20454;-75
2023/01/03 15:59:24;;;;;;;19.37;14.43;;;;;;;;;;5093451;28;20471;-75
2023/01/03 16:01:51;;;;;;;23.03;16.07;;;;;;;;;;5093435;28;20462;-75
2023/01/03 16:04:18;;;;;;;21.47;14.50;;;;;;;;;;5093002;28;20916;-75